sensor_id;sensor_type;location;lat;lon;timestamp;temperature;humidity
15156;DHT22;7678;50.058;8.306;2023-02-28T00:01:36;0.30;98.70
15156;DHT22;7678;50.058;8.306;2023-02-28T00:04:07;0.20;99.70
15156;DHT22;7678;50.058;8.306;2023-02-28T00:06:36;0.10;99.90
15156;DHT22;7678;50.058;8.306;2023-02-28T00:09:08;0.10;99.90
15156;DHT22;7678;50.058;8.306;2023-02-28T00:11:38;0.10;99.90
15156;DHT22;7678;50.058;8.306;2023-02-28T00:14:06;0.10;99.90
15156;DHT22;7678;50.058;8.306;2023-02-28T00:16:35;0.20;99.90
15156;DHT22;7678;50.058;8.306;2023-02-28T00:19:03;0.20;99.90
15156;DHT22;7678;50.058;8.306;2023-02-28T00:21:31;0.10;99.90
15156;DHT22;7678;50.058;8.306;2023-02-28T00:24:01;0.10;99.90
15156;DHT22;7678;50.058;8.306;2023-02-28T00:26:31;0.10;99.90
15156;DHT22;7678;50.058;8.306;2023-02-28T00:29:01;0.10;99.90
15156;DHT22;7678;50.058;8.306;2023-02-28T00:31:29;0.20;99.90
15156;DHT22;7678;50.058;8.306;2023-02-28T00:33:57;0.20;99.90
15156;DHT22;7678;50.058;8.306;2023-02-28T00:36:25;0.20;99.90
15156;DHT22;7678;50.058;8.306;2023-02-28T00:38:53;0.20;99.90
15156;DHT22;7678;50.058;8.306;2023-02-28T00:41:21;0.20;99.90
15156;DHT22;7678;50.058;8.306;2023-02-28T00:43:49;0.10;99.90
15156;DHT22;7678;50.058;8.306;2023-02-28T00:46:22;0.00;99.90
15156;DHT22;7678;50.058;8.306;2023-02-28T00:48:50;-0.10;99.90
15156;DHT22;7678;50.058;8.306;2023-02-28T00:51:18;-0.20;99.90
15156;DHT22;7678;50.058;8.306;2023-02-28T00:53:46;-0.30;99.90
15156;DHT22;7678;50.058;8.306;2023-02-28T00:56:16;-0.40;99.90
15156;DHT22;7678;50.058;8.306;2023-02-28T00:58:44;-0.40;99.90
15156;DHT22;7678;50.058;8.306;2023-02-28T01:01:14;-0.40;99.90
15156;DHT22;7678;50.058;8.306;2023-02-28T01:03:43;-0.50;99.90
15156;DHT22;7678;50.058;8.306;2023-02-28T01:06:13;-0.60;99.90
15156;DHT22;7678;50.058;8.306;2023-02-28T01:08:41;-0.50;99.90
15156;DHT22;7678;50.058;8.306;2023-02-28T01:11:11;-0.50;99.90
15156;DHT22;7678;50.058;8.306;2023-02-28T01:13:41;-0.60;99.90
15156;DHT22;7678;50.058;8.306;2023-02-28T01:16:09;-0.60;99.90
15156;DHT22;7678;50.058;8.306;2023-02-28T01:18:40;-0.60;99.90
15156;DHT22;7678;50.058;8.306;2023-02-28T01:21:13;-0.60;99.90
15156;DHT22;7678;50.058;8.306;2023-02-28T01:23:42;-0.50;99.90
15156;DHT22;7678;50.058;8.306;2023-02-28T01:26:13;-0.50;99.90
15156;DHT22;7678;50.058;8.306;2023-02-28T01:28:42;-0.60;99.90
15156;DHT22;7678;50.058;8.306;2023-02-28T01:31:11;-0.60;99.90
15156;DHT22;7678;50.058;8.306;2023-02-28T01:33:39;-0.60;99.90
15156;DHT22;7678;50.058;8.306;2023-02-28T01:36:11;-0.60;99.90
15156;DHT22;7678;50.058;8.306;2023-02-28T01:38:40;-0.50;99.90
15156;DHT22;7678;50.058;8.306;2023-02-28T01:41:14;-0.60;99.90
15156;DHT22;7678;50.058;8.306;2023-02-28T01:43:57;-0.70;99.90
15156;DHT22;7678;50.058;8.306;2023-02-28T01:46:27;-0.50;99.90
15156;DHT22;7678;50.058;8.306;2023-02-28T01:49:04;-0.50;99.90
15156;DHT22;7678;50.058;8.306;2023-02-28T01:51:39;-0.50;99.90
15156;DHT22;7678;50.058;8.306;2023-02-28T01:54:15;-0.50;99.90
15156;DHT22;7678;50.058;8.306;2023-02-28T01:56:50;-0.50;99.90
15156;DHT22;7678;50.058;8.306;2023-02-28T01:59:29;-0.50;99.90
15156;DHT22;7678;50.058;8.306;2023-02-28T02:02:05;-0.60;99.90
15156;DHT22;7678;50.058;8.306;2023-02-28T02:04:39;-0.70;99.90
15156;DHT22;7678;50.058;8.306;2023-02-28T02:07:10;-0.80;99.90
15156;DHT22;7678;50.058;8.306;2023-02-28T02:09:38;-0.80;99.90
15156;DHT22;7678;50.058;8.306;2023-02-28T02:12:19;-0.80;99.90
15156;DHT22;7678;50.058;8.306;2023-02-28T02:14:59;-0.80;99.90
15156;DHT22;7678;50.058;8.306;2023-02-28T02:17:35;-0.70;99.90
15156;DHT22;7678;50.058;8.306;2023-02-28T02:23:51;-0.80;99.90
15156;DHT22;7678;50.058;8.306;2023-02-28T02:26:51;-0.80;99.90
15156;DHT22;7678;50.058;8.306;2023-02-28T02:32:34;-0.70;99.90
15156;DHT22;7678;50.058;8.306;2023-02-28T02:35:14;-0.80;99.90
15156;DHT22;7678;50.058;8.306;2023-02-28T02:37:49;-0.80;99.90
15156;DHT22;7678;50.058;8.306;2023-02-28T02:40:21;-0.80;99.90
15156;DHT22;7678;50.058;8.306;2023-02-28T02:42:52;-0.80;99.90
15156;DHT22;7678;50.058;8.306;2023-02-28T02:45:27;-0.90;99.90
15156;DHT22;7678;50.058;8.306;2023-02-28T02:47:57;-0.80;99.90
15156;DHT22;7678;50.058;8.306;2023-02-28T02:50:31;-0.90;99.90
15156;DHT22;7678;50.058;8.306;2023-02-28T02:53:06;-0.80;99.90
15156;DHT22;7678;50.058;8.306;2023-02-28T02:55:40;-0.90;99.90
15156;DHT22;7678;50.058;8.306;2023-02-28T02:58:13;-0.80;99.90
15156;DHT22;7678;50.058;8.306;2023-02-28T03:00:45;-0.90;99.90
15156;DHT22;7678;50.058;8.306;2023-02-28T03:03:16;-0.90;99.90
15156;DHT22;7678;50.058;8.306;2023-02-28T03:05:50;-0.90;99.90
15156;DHT22;7678;50.058;8.306;2023-02-28T03:08:18;-0.80;99.90
15156;DHT22;7678;50.058;8.306;2023-02-28T03:10:49;-0.80;99.90
15156;DHT22;7678;50.058;8.306;2023-02-28T03:13:42;-0.90;99.90
15156;DHT22;7678;50.058;8.306;2023-02-28T03:16:27;-0.90;99.90
15156;DHT22;7678;50.058;8.306;2023-02-28T03:19:03;-0.90;99.90
15156;DHT22;7678;50.058;8.306;2023-02-28T03:21:39;-1.00;99.90
15156;DHT22;7678;50.058;8.306;2023-02-28T03:24:12;-1.00;99.90
15156;DHT22;7678;50.058;8.306;2023-02-28T03:26:45;-1.00;99.90
15156;DHT22;7678;50.058;8.306;2023-02-28T03:29:26;-1.00;99.90
15156;DHT22;7678;50.058;8.306;2023-02-28T03:32:02;-1.10;99.90
15156;DHT22;7678;50.058;8.306;2023-02-28T03:34:35;-1.10;99.90
15156;DHT22;7678;50.058;8.306;2023-02-28T03:37:10;-1.10;99.90
15156;DHT22;7678;50.058;8.306;2023-02-28T03:39:43;-1.10;99.90
15156;DHT22;7678;50.058;8.306;2023-02-28T03:42:14;-1.10;99.90
15156;DHT22;7678;50.058;8.306;2023-02-28T03:44:45;-1.10;99.90
15156;DHT22;7678;50.058;8.306;2023-02-28T03:47:19;-1.10;99.90
15156;DHT22;7678;50.058;8.306;2023-02-28T03:49:53;-1.10;99.90
15156;DHT22;7678;50.058;8.306;2023-02-28T03:52:29;-1.10;99.90
15156;DHT22;7678;50.058;8.306;2023-02-28T03:55:02;-1.10;99.90
15156;DHT22;7678;50.058;8.306;2023-02-28T03:57:37;-1.10;99.90
15156;DHT22;7678;50.058;8.306;2023-02-28T04:00:10;-1.10;99.90
15156;DHT22;7678;50.058;8.306;2023-02-28T04:02:42;-1.10;99.90
15156;DHT22;7678;50.058;8.306;2023-02-28T04:05:10;-1.10;99.90
15156;DHT22;7678;50.058;8.306;2023-02-28T04:07:39;-1.00;99.90
15156;DHT22;7678;50.058;8.306;2023-02-28T04:10:09;-1.10;99.90
15156;DHT22;7678;50.058;8.306;2023-02-28T04:12:41;-1.00;99.90
15156;DHT22;7678;50.058;8.306;2023-02-28T04:15:09;-1.10;99.90
15156;DHT22;7678;50.058;8.306;2023-02-28T04:17:38;-1.10;99.90
15156;DHT22;7678;50.058;8.306;2023-02-28T04:20:07;-1.10;99.90
15156;DHT22;7678;50.058;8.306;2023-02-28T04:22:38;-1.10;99.90
15156;DHT22;7678;50.058;8.306;2023-02-28T04:25:07;-1.00;99.90
15156;DHT22;7678;50.058;8.306;2023-02-28T04:27:35;-1.00;99.90
15156;DHT22;7678;50.058;8.306;2023-02-28T04:30:04;-0.90;99.90
15156;DHT22;7678;50.058;8.306;2023-02-28T04:32:33;-1.00;99.90
15156;DHT22;7678;50.058;8.306;2023-02-28T04:35:01;-1.00;99.90
15156;DHT22;7678;50.058;8.306;2023-02-28T04:37:30;-1.00;99.90
15156;DHT22;7678;50.058;8.306;2023-02-28T04:40:06;-1.10;99.90
15156;DHT22;7678;50.058;8.306;2023-02-28T04:42:35;-1.00;99.90
15156;DHT22;7678;50.058;8.306;2023-02-28T04:45:03;-1.00;99.90
15156;DHT22;7678;50.058;8.306;2023-02-28T04:47:31;-1.00;99.90
15156;DHT22;7678;50.058;8.306;2023-02-28T04:49:59;-1.10;99.90
15156;DHT22;7678;50.058;8.306;2023-02-28T04:52:30;-1.10;99.90
15156;DHT22;7678;50.058;8.306;2023-02-28T04:54:59;-1.10;99.90
15156;DHT22;7678;50.058;8.306;2023-02-28T04:57:29;-1.10;99.90
15156;DHT22;7678;50.058;8.306;2023-02-28T04:59:57;-1.10;99.90
15156;DHT22;7678;50.058;8.306;2023-02-28T05:02:26;-1.20;99.90
15156;DHT22;7678;50.058;8.306;2023-02-28T05:04:54;-1.20;99.90
15156;DHT22;7678;50.058;8.306;2023-02-28T05:07:22;-1.30;99.90
15156;DHT22;7678;50.058;8.306;2023-02-28T05:09:51;-1.20;99.90
15156;DHT22;7678;50.058;8.306;2023-02-28T05:12:21;-1.10;99.90
15156;DHT22;7678;50.058;8.306;2023-02-28T05:14:51;-1.20;99.90
15156;DHT22;7678;50.058;8.306;2023-02-28T05:17:21;-1.10;99.90
15156;DHT22;7678;50.058;8.306;2023-02-28T05:19:49;-1.20;99.90
15156;DHT22;7678;50.058;8.306;2023-02-28T05:22:18;-1.20;99.90
15156;DHT22;7678;50.058;8.306;2023-02-28T05:24:49;-1.10;99.90
15156;DHT22;7678;50.058;8.306;2023-02-28T05:27:17;-1.10;99.90
15156;DHT22;7678;50.058;8.306;2023-02-28T05:29:46;-1.10;99.90
15156;DHT22;7678;50.058;8.306;2023-02-28T05:32:15;-1.10;99.90
15156;DHT22;7678;50.058;8.306;2023-02-28T05:34:43;-1.10;99.90
15156;DHT22;7678;50.058;8.306;2023-02-28T05:37:13;-1.10;99.90
15156;DHT22;7678;50.058;8.306;2023-02-28T05:39:42;-1.00;99.90
15156;DHT22;7678;50.058;8.306;2023-02-28T05:42:10;-1.00;99.90
15156;DHT22;7678;50.058;8.306;2023-02-28T05:44:39;-0.90;99.90
15156;DHT22;7678;50.058;8.306;2023-02-28T05:47:07;-0.90;99.90
15156;DHT22;7678;50.058;8.306;2023-02-28T05:49:43;-0.90;99.90
15156;DHT22;7678;50.058;8.306;2023-02-28T05:52:17;-0.90;99.90
15156;DHT22;7678;50.058;8.306;2023-02-28T05:54:46;-0.80;99.90
15156;DHT22;7678;50.058;8.306;2023-02-28T05:57:17;-0.80;99.90
15156;DHT22;7678;50.058;8.306;2023-02-28T05:59:50;-0.80;99.90
15156;DHT22;7678;50.058;8.306;2023-02-28T06:02:18;-0.90;99.90
15156;DHT22;7678;50.058;8.306;2023-02-28T06:04:48;-0.90;99.90
15156;DHT22;7678;50.058;8.306;2023-02-28T06:07:17;-0.90;99.90
15156;DHT22;7678;50.058;8.306;2023-02-28T06:09:48;-0.90;99.90
15156;DHT22;7678;50.058;8.306;2023-02-28T06:12:16;-1.00;99.90
15156;DHT22;7678;50.058;8.306;2023-02-28T06:14:46;-1.00;99.90
15156;DHT22;7678;50.058;8.306;2023-02-28T06:17:17;-1.00;99.90
15156;DHT22;7678;50.058;8.306;2023-02-28T06:19:45;-1.10;99.90
15156;DHT22;7678;50.058;8.306;2023-02-28T06:22:17;-1.10;99.90
15156;DHT22;7678;50.058;8.306;2023-02-28T06:24:47;-1.10;99.90
15156;DHT22;7678;50.058;8.306;2023-02-28T06:27:17;-1.10;99.90
15156;DHT22;7678;50.058;8.306;2023-02-28T06:29:59;-1.20;99.90
15156;DHT22;7678;50.058;8.306;2023-02-28T06:32:28;-1.10;99.90
15156;DHT22;7678;50.058;8.306;2023-02-28T06:34:56;-1.20;99.90
15156;DHT22;7678;50.058;8.306;2023-02-28T06:37:26;-1.10;99.90
15156;DHT22;7678;50.058;8.306;2023-02-28T06:39:54;-1.10;99.90
15156;DHT22;7678;50.058;8.306;2023-02-28T06:42:25;-1.10;99.90
15156;DHT22;7678;50.058;8.306;2023-02-28T06:44:55;-1.00;99.90
15156;DHT22;7678;50.058;8.306;2023-02-28T06:47:24;-1.00;99.20
15156;DHT22;7678;50.058;8.306;2023-02-28T06:49:54;-0.90;98.70
15156;DHT22;7678;50.058;8.306;2023-02-28T06:52:25;-0.90;98.10
15156;DHT22;7678;50.058;8.306;2023-02-28T06:54:54;-0.80;97.70
15156;DHT22;7678;50.058;8.306;2023-02-28T06:57:32;-0.70;94.80
15156;DHT22;7678;50.058;8.306;2023-02-28T07:00:03;-0.60;94.40
15156;DHT22;7678;50.058;8.306;2023-02-28T07:02:37;-0.60;92.70
15156;DHT22;7678;50.058;8.306;2023-02-28T07:05:06;-0.60;93.10
15156;DHT22;7678;50.058;8.306;2023-02-28T07:07:36;-0.50;90.80
15156;DHT22;7678;50.058;8.306;2023-02-28T07:10:08;-0.40;87.30
15156;DHT22;7678;50.058;8.306;2023-02-28T07:12:37;-0.30;84.20
15156;DHT22;7678;50.058;8.306;2023-02-28T07:15:07;-0.40;86.60
15156;DHT22;7678;50.058;8.306;2023-02-28T07:17:35;-0.30;85.10
15156;DHT22;7678;50.058;8.306;2023-02-28T07:20:03;-0.10;78.70
15156;DHT22;7678;50.058;8.306;2023-02-28T07:22:33;-0.10;76.30
15156;DHT22;7678;50.058;8.306;2023-02-28T07:25:05;0.00;77.30
15156;DHT22;7678;50.058;8.306;2023-02-28T07:27:34;0.20;72.70
15156;DHT22;7678;50.058;8.306;2023-02-28T07:30:03;0.20;71.60
15156;DHT22;7678;50.058;8.306;2023-02-28T07:32:33;0.10;73.20
15156;DHT22;7678;50.058;8.306;2023-02-28T07:35:05;0.20;71.60
15156;DHT22;7678;50.058;8.306;2023-02-28T07:37:33;0.30;70.60
15156;DHT22;7678;50.058;8.306;2023-02-28T07:40:09;0.30;74.80
15156;DHT22;7678;50.058;8.306;2023-02-28T07:42:38;0.40;72.60
15156;DHT22;7678;50.058;8.306;2023-02-28T07:45:08;0.40;70.50
15156;DHT22;7678;50.058;8.306;2023-02-28T07:47:38;0.50;68.90
15156;DHT22;7678;50.058;8.306;2023-02-28T07:50:08;0.60;68.90
15156;DHT22;7678;50.058;8.306;2023-02-28T07:52:38;0.70;68.90
15156;DHT22;7678;50.058;8.306;2023-02-28T07:55:09;0.80;66.10
15156;DHT22;7678;50.058;8.306;2023-02-28T07:57:37;0.80;69.90
15156;DHT22;7678;50.058;8.306;2023-02-28T08:00:08;0.90;68.50
15156;DHT22;7678;50.058;8.306;2023-02-28T08:02:37;0.90;67.50
15156;DHT22;7678;50.058;8.306;2023-02-28T08:05:06;0.90;67.00
15156;DHT22;7678;50.058;8.306;2023-02-28T08:07:35;1.00;68.40
15156;DHT22;7678;50.058;8.306;2023-02-28T08:10:04;1.00;65.10
15156;DHT22;7678;50.058;8.306;2023-02-28T08:12:34;1.00;66.30
15156;DHT22;7678;50.058;8.306;2023-02-28T08:15:03;1.10;65.40
15156;DHT22;7678;50.058;8.306;2023-02-28T08:17:31;1.10;66.40
15156;DHT22;7678;50.058;8.306;2023-02-28T08:20:01;1.10;66.00
15156;DHT22;7678;50.058;8.306;2023-02-28T08:22:30;1.10;65.30
15156;DHT22;7678;50.058;8.306;2023-02-28T08:24:58;1.20;66.70
15156;DHT22;7678;50.058;8.306;2023-02-28T08:27:26;1.40;64.50
15156;DHT22;7678;50.058;8.306;2023-02-28T08:29:56;1.30;66.10
15156;DHT22;7678;50.058;8.306;2023-02-28T08:32:24;1.40;64.20
15156;DHT22;7678;50.058;8.306;2023-02-28T08:34:56;1.40;63.90
15156;DHT22;7678;50.058;8.306;2023-02-28T08:37:24;1.40;61.50
15156;DHT22;7678;50.058;8.306;2023-02-28T08:39:52;1.50;60.80
15156;DHT22;7678;50.058;8.306;2023-02-28T08:56:56;1.50;62.30
15156;DHT22;7678;50.058;8.306;2023-02-28T08:59:24;1.50;62.60
15156;DHT22;7678;50.058;8.306;2023-02-28T09:01:52;1.60;63.00
15156;DHT22;7678;50.058;8.306;2023-02-28T09:04:20;1.60;63.20
15156;DHT22;7678;50.058;8.306;2023-02-28T09:06:50;1.60;63.10
15156;DHT22;7678;50.058;8.306;2023-02-28T09:09:19;1.60;62.50
15156;DHT22;7678;50.058;8.306;2023-02-28T09:11:47;1.70;63.90
15156;DHT22;7678;50.058;8.306;2023-02-28T09:14:16;1.70;63.40
15156;DHT22;7678;50.058;8.306;2023-02-28T09:16:45;1.70;64.10
15156;DHT22;7678;50.058;8.306;2023-02-28T09:19:13;1.70;64.10
15156;DHT22;7678;50.058;8.306;2023-02-28T09:21:41;1.80;62.90
15156;DHT22;7678;50.058;8.306;2023-02-28T09:24:09;1.80;62.60
15156;DHT22;7678;50.058;8.306;2023-02-28T09:26:40;2.00;61.70
15156;DHT22;7678;50.058;8.306;2023-02-28T09:29:30;2.10;59.70
15156;DHT22;7678;50.058;8.306;2023-02-28T09:31:58;2.10;58.00
15156;DHT22;7678;50.058;8.306;2023-02-28T09:34:27;2.10;58.90
15156;DHT22;7678;50.058;8.306;2023-02-28T09:36:57;2.30;58.30
15156;DHT22;7678;50.058;8.306;2023-02-28T09:39:29;2.40;58.20
15156;DHT22;7678;50.058;8.306;2023-02-28T09:41:58;2.40;56.50
15156;DHT22;7678;50.058;8.306;2023-02-28T09:44:30;2.20;56.60
15156;DHT22;7678;50.058;8.306;2023-02-28T09:47:04;2.30;57.00
15156;DHT22;7678;50.058;8.306;2023-02-28T09:49:40;2.00;56.50
15156;DHT22;7678;50.058;8.306;2023-02-28T09:52:13;2.20;56.30
15156;DHT22;7678;50.058;8.306;2023-02-28T09:54:41;2.30;56.10
15156;DHT22;7678;50.058;8.306;2023-02-28T09:57:17;2.40;55.50
15156;DHT22;7678;50.058;8.306;2023-02-28T10:00:02;2.40;55.60
15156;DHT22;7678;50.058;8.306;2023-02-28T10:05:28;2.60;54.20
15156;DHT22;7678;50.058;8.306;2023-02-28T10:08:03;2.70;54.10
15156;DHT22;7678;50.058;8.306;2023-02-28T10:10:38;2.80;53.70
15156;DHT22;7678;50.058;8.306;2023-02-28T10:13:13;2.90;53.00
15156;DHT22;7678;50.058;8.306;2023-02-28T10:15:46;2.70;53.30
15156;DHT22;7678;50.058;8.306;2023-02-28T10:18:19;2.70;52.90
15156;DHT22;7678;50.058;8.306;2023-02-28T10:20:49;2.60;52.90
15156;DHT22;7678;50.058;8.306;2023-02-28T10:23:21;2.80;53.40
15156;DHT22;7678;50.058;8.306;2023-02-28T10:25:55;3.10;52.20
15156;DHT22;7678;50.058;8.306;2023-02-28T10:28:25;3.40;52.10
15156;DHT22;7678;50.058;8.306;2023-02-28T10:30:55;3.30;52.00
15156;DHT22;7678;50.058;8.306;2023-02-28T10:33:29;3.00;51.00
15156;DHT22;7678;50.058;8.306;2023-02-28T10:35:57;3.00;51.30
15156;DHT22;7678;50.058;8.306;2023-02-28T10:38:27;3.30;51.20
15156;DHT22;7678;50.058;8.306;2023-02-28T10:41:06;3.10;49.70
15156;DHT22;7678;50.058;8.306;2023-02-28T10:43:36;3.10;50.10
15156;DHT22;7678;50.058;8.306;2023-02-28T10:46:12;3.40;50.50
15156;DHT22;7678;50.058;8.306;2023-02-28T10:48:44;3.50;49.80
15156;DHT22;7678;50.058;8.306;2023-02-28T10:51:15;3.30;50.20
15156;DHT22;7678;50.058;8.306;2023-02-28T10:53:51;3.20;49.70
15156;DHT22;7678;50.058;8.306;2023-02-28T10:56:28;3.40;49.40
15156;DHT22;7678;50.058;8.306;2023-02-28T10:58:59;3.40;50.30
15156;DHT22;7678;50.058;8.306;2023-02-28T11:01:37;3.40;49.80
15156;DHT22;7678;50.058;8.306;2023-02-28T11:04:23;3.50;49.60
15156;DHT22;7678;50.058;8.306;2023-02-28T11:07:01;3.60;49.70
15156;DHT22;7678;50.058;8.306;2023-02-28T11:09:33;4.40;49.60
15156;DHT22;7678;50.058;8.306;2023-02-28T11:12:04;4.50;48.10
15156;DHT22;7678;50.058;8.306;2023-02-28T11:14:34;4.20;47.20
15156;DHT22;7678;50.058;8.306;2023-02-28T11:17:14;3.90;48.10
15156;DHT22;7678;50.058;8.306;2023-02-28T11:19:45;3.80;48.30
15156;DHT22;7678;50.058;8.306;2023-02-28T11:22:19;3.90;49.10
15156;DHT22;7678;50.058;8.306;2023-02-28T11:24:50;4.00;48.60
15156;DHT22;7678;50.058;8.306;2023-02-28T11:30:27;4.30;47.10
15156;DHT22;7678;50.058;8.306;2023-02-28T11:32:56;4.60;47.40
15156;DHT22;7678;50.058;8.306;2023-02-28T11:35:28;4.30;47.00
15156;DHT22;7678;50.058;8.306;2023-02-28T11:37:58;4.20;46.40
15156;DHT22;7678;50.058;8.306;2023-02-28T11:40:31;4.60;47.20
15156;DHT22;7678;50.058;8.306;2023-02-28T11:43:09;4.80;46.70
15156;DHT22;7678;50.058;8.306;2023-02-28T11:45:48;4.40;46.50
15156;DHT22;7678;50.058;8.306;2023-02-28T11:48:26;4.40;46.20
15156;DHT22;7678;50.058;8.306;2023-02-28T11:51:04;4.50;46.40
15156;DHT22;7678;50.058;8.306;2023-02-28T11:54:02;4.70;46.00
15156;DHT22;7678;50.058;8.306;2023-02-28T11:56:38;4.30;46.10
15156;DHT22;7678;50.058;8.306;2023-02-28T11:59:29;3.80;45.90
15156;DHT22;7678;50.058;8.306;2023-02-28T12:02:24;4.30;47.70
15156;DHT22;7678;50.058;8.306;2023-02-28T12:05:09;4.50;46.80
15156;DHT22;7678;50.058;8.306;2023-02-28T12:07:45;4.70;46.00
15156;DHT22;7678;50.058;8.306;2023-02-28T12:10:20;4.40;45.30
15156;DHT22;7678;50.058;8.306;2023-02-28T12:12:57;4.70;46.20
15156;DHT22;7678;50.058;8.306;2023-02-28T12:15:50;4.80;46.30
15156;DHT22;7678;50.058;8.306;2023-02-28T12:18:40;4.80;45.30
15156;DHT22;7678;50.058;8.306;2023-02-28T12:21:18;4.90;44.80
15156;DHT22;7678;50.058;8.306;2023-02-28T12:24:06;4.70;44.90
15156;DHT22;7678;50.058;8.306;2023-02-28T12:26:40;4.60;44.80
15156;DHT22;7678;50.058;8.306;2023-02-28T12:29:14;4.60;45.40
15156;DHT22;7678;50.058;8.306;2023-02-28T12:31:47;5.00;45.20
15156;DHT22;7678;50.058;8.306;2023-02-28T12:34:20;4.90;44.60
15156;DHT22;7678;50.058;8.306;2023-02-28T12:36:52;4.80;45.50
15156;DHT22;7678;50.058;8.306;2023-02-28T12:39:25;4.90;45.90
15156;DHT22;7678;50.058;8.306;2023-02-28T12:41:56;4.80;45.60
15156;DHT22;7678;50.058;8.306;2023-02-28T12:44:32;4.80;45.70
15156;DHT22;7678;50.058;8.306;2023-02-28T12:47:04;4.90;45.00
15156;DHT22;7678;50.058;8.306;2023-02-28T12:49:34;4.70;44.70
15156;DHT22;7678;50.058;8.306;2023-02-28T12:52:06;4.60;45.20
15156;DHT22;7678;50.058;8.306;2023-02-28T12:54:44;4.40;45.40
15156;DHT22;7678;50.058;8.306;2023-02-28T12:57:18;4.50;46.80
15156;DHT22;7678;50.058;8.306;2023-02-28T12:59:52;4.70;45.50
15156;DHT22;7678;50.058;8.306;2023-02-28T13:02:50;4.80;45.40
15156;DHT22;7678;50.058;8.306;2023-02-28T13:05:50;5.00;45.90
15156;DHT22;7678;50.058;8.306;2023-02-28T13:08:54;4.90;45.40
15156;DHT22;7678;50.058;8.306;2023-02-28T13:11:27;4.70;45.30
15156;DHT22;7678;50.058;8.306;2023-02-28T13:14:01;4.90;45.30
15156;DHT22;7678;50.058;8.306;2023-02-28T13:16:55;5.00;44.50
15156;DHT22;7678;50.058;8.306;2023-02-28T13:19:26;4.80;45.00
15156;DHT22;7678;50.058;8.306;2023-02-28T13:21:57;5.00;45.90
15156;DHT22;7678;50.058;8.306;2023-02-28T13:24:47;4.60;45.00
15156;DHT22;7678;50.058;8.306;2023-02-28T13:27:37;4.60;45.50
15156;DHT22;7678;50.058;8.306;2023-02-28T13:33:26;4.90;44.90
15156;DHT22;7678;50.058;8.306;2023-02-28T13:36:24;5.00;45.10
15156;DHT22;7678;50.058;8.306;2023-02-28T13:38:53;5.00;44.30
15156;DHT22;7678;50.058;8.306;2023-02-28T13:41:45;4.90;44.50
15156;DHT22;7678;50.058;8.306;2023-02-28T13:44:16;4.90;44.90
15156;DHT22;7678;50.058;8.306;2023-02-28T13:47:27;4.90;44.60
15156;DHT22;7678;50.058;8.306;2023-02-28T13:50:21;5.10;45.30
15156;DHT22;7678;50.058;8.306;2023-02-28T13:53:01;5.00;45.10
15156;DHT22;7678;50.058;8.306;2023-02-28T13:55:35;4.90;45.40
15156;DHT22;7678;50.058;8.306;2023-02-28T14:01:16;5.20;44.80
15156;DHT22;7678;50.058;8.306;2023-02-28T14:07:00;5.40;44.50
15156;DHT22;7678;50.058;8.306;2023-02-28T14:09:31;5.10;44.30
15156;DHT22;7678;50.058;8.306;2023-02-28T14:15:17;5.00;44.90
15156;DHT22;7678;50.058;8.306;2023-02-28T14:17:53;4.90;45.10
15156;DHT22;7678;50.058;8.306;2023-02-28T14:20:27;5.00;45.80
15156;DHT22;7678;50.058;8.306;2023-02-28T14:23:04;4.90;44.90
15156;DHT22;7678;50.058;8.306;2023-02-28T14:25:42;5.00;45.70
15156;DHT22;7678;50.058;8.306;2023-02-28T14:28:19;5.10;46.40
15156;DHT22;7678;50.058;8.306;2023-02-28T14:31:00;5.00;45.50
15156;DHT22;7678;50.058;8.306;2023-02-28T14:33:40;4.70;45.80
15156;DHT22;7678;50.058;8.306;2023-02-28T14:36:14;4.80;45.80
15156;DHT22;7678;50.058;8.306;2023-02-28T14:38:47;4.80;45.60
15156;DHT22;7678;50.058;8.306;2023-02-28T14:41:23;4.80;45.80
15156;DHT22;7678;50.058;8.306;2023-02-28T14:43:54;4.70;45.90
15156;DHT22;7678;50.058;8.306;2023-02-28T14:46:28;4.70;45.60
15156;DHT22;7678;50.058;8.306;2023-02-28T14:48:58;4.70;45.90
15156;DHT22;7678;50.058;8.306;2023-02-28T14:51:26;4.60;45.80
15156;DHT22;7678;50.058;8.306;2023-02-28T14:53:58;4.70;46.00
15156;DHT22;7678;50.058;8.306;2023-02-28T14:56:34;4.60;46.30
15156;DHT22;7678;50.058;8.306;2023-02-28T14:59:04;4.70;46.70
15156;DHT22;7678;50.058;8.306;2023-02-28T15:01:36;4.60;46.40
15156;DHT22;7678;50.058;8.306;2023-02-28T15:04:06;4.70;46.90
15156;DHT22;7678;50.058;8.306;2023-02-28T15:06:36;4.70;46.40
15156;DHT22;7678;50.058;8.306;2023-02-28T15:09:13;4.60;45.70
15156;DHT22;7678;50.058;8.306;2023-02-28T15:11:47;4.80;47.00
15156;DHT22;7678;50.058;8.306;2023-02-28T15:14:21;4.80;46.50
15156;DHT22;7678;50.058;8.306;2023-02-28T15:16:56;4.80;46.60
15156;DHT22;7678;50.058;8.306;2023-02-28T15:19:27;4.60;47.20
15156;DHT22;7678;50.058;8.306;2023-02-28T15:22:02;4.60;47.40
15156;DHT22;7678;50.058;8.306;2023-02-28T15:24:37;4.60;47.60
15156;DHT22;7678;50.058;8.306;2023-02-28T15:27:13;4.60;47.90
15156;DHT22;7678;50.058;8.306;2023-02-28T15:29:45;4.60;48.00
15156;DHT22;7678;50.058;8.306;2023-02-28T15:32:26;4.60;48.10
15156;DHT22;7678;50.058;8.306;2023-02-28T15:34:56;4.50;47.40
15156;DHT22;7678;50.058;8.306;2023-02-28T15:37:39;4.60;47.80
15156;DHT22;7678;50.058;8.306;2023-02-28T15:40:16;4.50;48.10
15156;DHT22;7678;50.058;8.306;2023-02-28T15:42:59;4.50;48.00
15156;DHT22;7678;50.058;8.306;2023-02-28T15:45:38;4.60;48.70
15156;DHT22;7678;50.058;8.306;2023-02-28T15:48:28;4.60;48.90
15156;DHT22;7678;50.058;8.306;2023-02-28T15:51:02;4.50;47.80
15156;DHT22;7678;50.058;8.306;2023-02-28T15:53:34;4.40;47.80
15156;DHT22;7678;50.058;8.306;2023-02-28T15:56:12;4.50;48.00
15156;DHT22;7678;50.058;8.306;2023-02-28T15:58:46;4.40;48.80
15156;DHT22;7678;50.058;8.306;2023-02-28T16:01:23;4.30;48.90
15156;DHT22;7678;50.058;8.306;2023-02-28T16:03:55;4.40;48.90
15156;DHT22;7678;50.058;8.306;2023-02-28T16:07:00;4.30;48.20
15156;DHT22;7678;50.058;8.306;2023-02-28T16:09:34;4.20;49.30
15156;DHT22;7678;50.058;8.306;2023-02-28T16:12:04;4.20;49.00
15156;DHT22;7678;50.058;8.306;2023-02-28T16:14:35;4.30;49.40
15156;DHT22;7678;50.058;8.306;2023-02-28T16:17:08;4.20;48.50
15156;DHT22;7678;50.058;8.306;2023-02-28T16:19:43;4.10;49.60
15156;DHT22;7678;50.058;8.306;2023-02-28T16:22:12;4.00;49.20
15156;DHT22;7678;50.058;8.306;2023-02-28T16:24:41;4.00;49.80
15156;DHT22;7678;50.058;8.306;2023-02-28T16:27:17;4.00;50.00
15156;DHT22;7678;50.058;8.306;2023-02-28T16:29:47;3.90;50.30
15156;DHT22;7678;50.058;8.306;2023-02-28T16:32:18;3.90;50.60
15156;DHT22;7678;50.058;8.306;2023-02-28T16:34:48;3.90;50.30
15156;DHT22;7678;50.058;8.306;2023-02-28T16:37:18;3.80;50.30
15156;DHT22;7678;50.058;8.306;2023-02-28T16:39:47;3.70;50.70
15156;DHT22;7678;50.058;8.306;2023-02-28T16:42:21;3.70;51.30
15156;DHT22;7678;50.058;8.306;2023-02-28T16:44:52;3.60;51.80
15156;DHT22;7678;50.058;8.306;2023-02-28T16:47:20;3.60;51.40
15156;DHT22;7678;50.058;8.306;2023-02-28T16:49:50;3.60;51.90
15156;DHT22;7678;50.058;8.306;2023-02-28T16:52:18;3.40;52.40
15156;DHT22;7678;50.058;8.306;2023-02-28T16:54:46;3.40;53.40
15156;DHT22;7678;50.058;8.306;2023-02-28T16:57:19;3.30;53.00
15156;DHT22;7678;50.058;8.306;2023-02-28T16:59:47;3.30;53.00
15156;DHT22;7678;50.058;8.306;2023-02-28T17:02:18;3.30;53.60
15156;DHT22;7678;50.058;8.306;2023-02-28T17:04:47;3.20;53.90
15156;DHT22;7678;50.058;8.306;2023-02-28T17:07:17;3.10;54.60
15156;DHT22;7678;50.058;8.306;2023-02-28T17:09:45;3.00;54.40
15156;DHT22;7678;50.058;8.306;2023-02-28T17:12:13;2.80;54.80